Time;durP1;ratioP1;P1;durP2;ratioP2;P2;SDS_P1;SDS_P2;PMS_P1;PMS_P2;Temp;Humidity;BMP_temperature;BMP_pressure;BME280_temperature;BME280_humidity;BME280_pressure;Samples;Min_cycle;Max_cycle;Signal;HPM_P1;HPM_P2
2021/11/10 00:00:33;;;;;;;16.33;10.17;;;1.80;95.90;;;;;;5066820;28;20198;-90
2021/11/10 00:03:16;;;;;;;17.67;9.73;;;1.80;95.70;;;;;;5068892;28;20228;-90
2021/11/10 00:05:43;;;;;;;16.53;10.00;;;1.90;95.30;;;;;;5072134;28;20193;-90
2021/11/10 00:08:13;;;;;;;13.50;9.40;;;1.90;95.10;;;;;;5067375;28;20233;-89
2021/11/10 00:10:40;;;;;;;12.27;9.37;;;1.90;95.20;;;;;;5058985;28;20657;-91
2021/11/10 00:13:19;;;;;;;17.60;10.07;;;1.80;95.30;;;;;;5085256;28;20230;-93
2021/11/10 00:15:47;;;;;;;15.83;9.73;;;1.60;95.40;;;;;;5087123;28;20200;-91
2021/11/10 00:18:16;;;;;;;15.80;9.17;;;1.60;96.10;;;;;;5069761;28;20221;-89
2021/11/10 00:20:44;;;;;;;17.23;10.20;;;1.70;96.20;;;;;;5068167;28;20198;-90
2021/11/10 00:23:11;;;;;;;13.30;8.80;;;1.80;95.90;;;;;;5074722;28;20235;-89
2021/11/10 00:25:38;;;;;;;16.40;10.00;;;1.70;95.60;;;;;;5062148;28;20666;-89
2021/11/10 00:28:06;;;;;;;16.57;10.03;;;1.70;95.90;;;;;;5072776;28;20231;-90
2021/11/10 00:30:33;;;;;;;13.83;9.70;;;1.70;96.00;;;;;;5072559;28;20219;-90
2021/11/10 00:33:00;;;;;;;12.27;9.03;;;1.70;96.10;;;;;;5074795;28;20224;-91
2021/11/10 00:35:29;;;;;;;16.23;9.60;;;1.70;96.20;;;;;;5074307;28;20201;-90
2021/11/10 00:37:56;;;;;;;11.63;8.80;;;1.60;96.20;;;;;;5071062;28;20236;-89
2021/11/10 00:40:23;;;;;;;17.30;9.80;;;1.70;96.00;;;;;;5071096;28;20652;-89
2021/11/10 00:42:50;;;;;;;15.87;9.43;;;1.70;95.70;;;;;;5064549;28;20345;-90
2021/11/10 00:45:17;;;;;;;14.97;9.37;;;1.70;96.40;;;;;;5074843;28;20201;-90
2021/11/10 00:47:44;;;;;;;12.83;9.20;;;1.80;95.90;;;;;;5074054;28;20221;-90
2021/11/10 00:50:30;;;;;;;12.87;9.47;;;1.80;95.70;;;;;;5068300;28;20200;-89
2021/11/10 00:52:58;;;;;;;13.77;8.67;;;1.90;95.60;;;;;;5066075;28;20693;-89
2021/11/10 00:55:26;;;;;;;13.13;9.50;;;1.80;95.30;;;;;;5078075;28;20234;-89
2021/11/10 00:57:53;;;;;;;14.30;9.77;;;1.70;95.40;;;;;;5074298;28;20273;-90
2021/11/10 01:00:21;;;;;;;13.23;9.47;;;1.60;96.30;;;;;;5064217;28;20625;-90
2021/11/10 01:02:48;;;;;;;13.33;9.50;;;1.60;96.00;;;;;;5066383;28;20217;-91
2021/11/10 01:05:16;;;;;;;15.07;9.30;;;1.60;96.20;;;;;;5072902;28;20202;-90
2021/11/10 01:07:43;;;;;;;13.77;9.23;;;1.70;96.20;;;;;;5075527;28;20288;-90
2021/11/10 01:12:53;;;;;;;15.40;9.43;;;1.70;95.70;;;;;;5087299;28;20587;-90
2021/11/10 01:15:20;;;;;;;12.70;9.37;;;1.60;96.10;;;;;;5048389;28;20629;-89
2021/11/10 01:17:47;;;;;;;13.27;9.27;;;1.60;96.20;;;;;;5067741;28;20205;-91
2021/11/10 01:20:15;;;;;;;13.23;9.50;;;1.70;95.90;;;;;;5031247;28;20226;-90
2021/11/10 01:25:25;;;;;;;13.50;9.80;;;1.70;95.80;;;;;;5070733;28;20204;-90
2021/11/10 01:27:53;;;;;;;12.93;9.17;;;1.70;95.70;;;;;;5083238;28;20224;-91
2021/11/10 01:30:22;;;;;;;11.93;8.83;;;1.70;95.50;;;;;;5070488;28;20296;-90
2021/11/10 01:32:50;;;;;;;14.53;9.30;;;1.60;95.30;;;;;;5067702;28;20232;-90
2021/11/10 01:37:58;;;;;;;15.50;9.50;;;1.60;95.80;;;;;;5071905;28;20326;-90
2021/11/10 01:43:13;;;;;;;15.70;9.07;;;1.50;96.00;;;;;;5081956;28;20265;-90
2021/11/10 01:45:40;;;;;;;12.97;8.57;;;1.40;95.70;;;;;;5092279;28;20211;-90
2021/11/10 01:48:07;;;;;;;12.10;8.70;;;1.30;96.10;;;;;;5090791;28;20568;-90
2021/11/10 01:50:34;;;;;;;11.30;8.83;;;1.40;96.10;;;;;;5073567;28;20573;-90
2021/11/10 01:53:02;;;;;;;14.93;9.40;;;1.30;96.30;;;;;;5092827;28;20590;-90
2021/11/10 01:55:30;;;;;;;15.13;9.30;;;1.40;96.40;;;;;;5081889;28;20517;-90
2021/11/10 01:57:58;;;;;;;12.07;9.10;;;1.40;96.10;;;;;;5083437;28;20231;-89
2021/11/10 02:00:27;;;;;;;12.97;8.90;;;1.20;96.20;;;;;;5064950;28;20206;-90
2021/11/10 02:02:55;;;;;;;13.07;8.77;;;1.20;96.70;;;;;;5063219;28;21050;-90
2021/11/10 02:05:24;;;;;;;12.70;9.07;;;1.30;97.10;;;;;;5071826;28;20669;-89
2021/11/10 02:07:52;;;;;;;13.57;9.10;;;1.30;96.80;;;;;;5072752;28;20230;-90
2021/11/10 02:10:21;;;;;;;13.47;8.63;;;1.50;96.70;;;;;;5047291;28;20603;-91
2021/11/10 02:12:49;;;;;;;12.67;8.97;;;1.60;96.30;;;;;;5071960;28;20212;-90
2021/11/10 02:15:28;;;;;;;14.13;8.70;;;1.70;96.00;;;;;;5069701;28;20288;-90
2021/11/10 02:17:57;;;;;;;12.87;8.97;;;1.70;95.60;;;;;;5071915;28;20785;-90
2021/11/10 02:25:58;;;;;;;12.80;8.63;;;1.70;95.90;;;;;;5071677;28;20572;-90
2021/11/10 02:28:25;;;;;;;12.83;8.63;;;1.60;95.80;;;;;;5079885;28;20314;-89
2021/11/10 02:30:54;;;;;;;11.73;9.00;;;1.70;95.80;;;;;;5092257;28;20200;-90
2021/11/10 02:36:08;;;;;;;13.30;9.10;;;1.50;95.90;;;;;;5086993;28;20239;-90
2021/11/10 02:38:39;;;;;;;12.10;8.97;;;1.50;96.30;;;;;;5074633;28;20235;-90
2021/11/10 02:41:06;;;;;;;12.30;8.93;;;1.50;96.10;;;;;;5081019;28;20211;-90
2021/11/10 02:43:33;;;;;;;13.43;8.10;;;1.70;95.90;;;;;;5071409;28;20607;-89
2021/11/10 02:46:00;;;;;;;11.10;8.07;;;1.70;95.60;;;;;;5072040;28;20214;-90
2021/11/10 02:48:27;;;;;;;14.37;8.90;;;1.70;95.50;;;;;;5084131;28;20312;-89
2021/11/10 02:50:55;;;;;;;12.00;8.70;;;1.70;95.20;;;;;;5074839;28;20215;-90
2021/11/10 02:53:22;;;;;;;14.20;8.90;;;1.60;95.60;;;;;;5074675;28;20235;-90
2021/11/10 02:55:52;;;;;;;12.30;8.47;;;1.60;95.90;;;;;;5074385;28;20211;-90
2021/11/10 02:58:19;;;;;;;13.87;9.17;;;1.60;95.70;;;;;;5092717;28;20220;-90
2021/11/10 03:00:46;;;;;;;10.97;8.50;;;1.60;95.80;;;;;;5093108;28;20203;-90
2021/11/10 03:03:14;;;;;;;11.63;8.60;;;1.60;95.70;;;;;;5092009;28;20222;-90
2021/11/10 03:05:46;;;;;;;13.13;8.33;;;1.60;95.70;;;;;;5069088;28;20228;-90
2021/11/10 03:08:19;;;;;;;11.23;8.40;;;1.70;95.50;;;;;;5076028;28;20281;-90
2021/11/10 03:10:46;;;;;;;13.73;8.40;;;1.70;95.30;;;;;;5099842;28;20205;-92
2021/11/10 03:15:57;;;;;;;10.50;8.17;;;1.70;95.20;;;;;;5075154;28;20199;-90
2021/11/10 03:18:24;;;;;;;11.73;8.23;;;1.60;95.30;;;;;;5090992;28;20228;-90
2021/11/10 03:20:51;;;;;;;13.13;8.43;;;1.60;95.30;;;;;;5088480;28;20646;-90
2021/11/10 03:23:18;;;;;;;12.47;9.00;;;1.60;95.10;;;;;;5084846;28;20225;-90
2021/11/10 03:25:46;;;;;;;13.47;9.03;;;1.60;95.10;;;;;;5070196;28;20545;-90
2021/11/10 03:28:15;;;;;;;11.27;8.33;;;1.50;95.20;;;;;;5091941;28;20223;-89
2021/11/10 03:30:42;;;;;;;12.57;8.77;;;1.50;95.40;;;;;;5095836;28;20230;-90
2021/11/10 03:35:50;;;;;;;13.60;8.27;;;1.50;95.40;;;;;;5081711;28;20555;-90
2021/11/10 03:38:17;;;;;;;11.40;8.27;;;1.50;95.30;;;;;;5091157;28;20716;-90
2021/11/10 03:40:44;;;;;;;11.23;8.30;;;1.50;95.20;;;;;;5095186;28;20299;-91
2021/11/10 03:43:12;;;;;;;11.60;8.43;;;1.40;95.50;;;;;;5079627;28;20226;-89
2021/11/10 03:45:40;;;;;;;12.93;8.53;;;1.30;95.50;;;;;;5093016;28;20196;-90
2021/11/10 03:48:10;;;;;;;10.83;8.07;;;1.30;95.90;;;;;;5091186;28;20232;-89
2021/11/10 03:50:38;;;;;;;13.47;8.20;;;1.30;96.00;;;;;;5071648;28;20201;-91
2021/11/10 03:53:05;;;;;;;11.83;7.80;;;1.30;95.80;;;;;;5095106;28;20612;-90
2021/11/10 03:55:36;;;;;;;11.67;8.27;;;1.30;95.80;;;;;;5095091;28;20213;-89
2021/11/10 03:58:03;;;;;;;10.30;7.80;;;1.30;96.30;;;;;;5095347;28;20269;-89
2021/11/10 04:00:36;;;;;;;13.00;8.13;;;1.40;95.80;;;;;;5076837;28;20197;-90
2021/11/10 04:05:46;;;;;;;10.00;8.00;;;1.20;95.80;;;;;;5094507;28;20204;-90
2021/11/10 04:08:13;;;;;;;10.33;7.37;;;1.20;96.30;;;;;;5074145;28;20235;-91
2021/11/10 04:10:41;;;;;;;11.17;7.67;;;1.30;96.00;;;;;;5089587;28;20203;-93
2021/11/10 04:13:08;;;;;;;10.10;8.17;;;1.30;95.50;;;;;;5076297;28;20220;-90
2021/11/10 04:15:36;;;;;;;10.83;7.37;;;1.20;95.60;;;;;;5077771;28;20266;-90
2021/11/10 04:18:05;;;;;;;10.53;7.80;;;1.10;96.10;;;;;;5089156;28;20976;-89
2021/11/10 04:20:33;;;;;;;11.53;7.70;;;1.20;95.90;;;;;;5087712;28;20199;-90
2021/11/10 04:23:01;;;;;;;11.83;8.00;;;1.30;95.70;;;;;;5086156;28;20300;-90
2021/11/10 04:25:28;;;;;;;10.90;8.23;;;1.30;95.30;;;;;;5095245;28;20203;-90
2021/11/10 04:27:55;;;;;;;10.53;7.90;;;1.20;95.50;;;;;;5076814;28;20223;-89
2021/11/10 04:30:23;;;;;;;9.87;7.97;;;1.20;95.80;;;;;;5095123;28;20200;-91
2021/11/10 04:32:50;;;;;;;11.67;8.27;;;1.10;96.00;;;;;;5094037;28;20201;-90
2021/11/10 04:35:19;;;;;;;10.67;7.17;;;1.10;96.30;;;;;;5092682;28;20200;-90
2021/11/10 04:37:49;;;;;;;11.00;7.80;;;1.30;95.90;;;;;;5087131;28;20227;-90
2021/11/10 04:40:16;;;;;;;10.47;7.37;;;1.40;95.40;;;;;;5094860;28;20208;-90
2021/11/10 04:42:43;;;;;;;9.80;6.83;;;1.30;95.40;;;;;;5092957;28;20674;-89
2021/11/10 04:47:53;;;;;;;9.50;7.30;;;1.30;95.20;;;;;;5093517;28;20231;-90
2021/11/10 04:50:23;;;;;;;13.17;8.07;;;1.30;95.30;;;;;;5091328;28;20203;-91
2021/11/10 04:52:52;;;;;;;13.13;8.40;;;1.40;95.10;;;;;;5087982;28;20200;-90
2021/11/10 04:55:20;;;;;;;12.83;8.33;;;1.40;95.10;;;;;;5086802;28;20201;-89
2021/11/10 04:57:48;;;;;;;10.77;7.73;;;1.40;95.10;;;;;;5084913;28;20202;-90
2021/11/10 05:00:15;;;;;;;12.07;7.67;;;1.40;95.20;;;;;;5057655;28;20199;-89
2021/11/10 05:05:25;;;;;;;11.97;8.33;;;1.20;95.60;;;;;;5090238;28;20215;-90
2021/11/10 05:07:53;;;;;;;11.10;7.80;;;1.20;96.00;;;;;;5092580;28;20236;-89
2021/11/10 05:10:20;;;;;;;11.50;7.73;;;1.30;95.80;;;;;;5090537;28;20197;-89
2021/11/10 05:12:47;;;;;;;10.73;8.20;;;1.30;95.60;;;;;;5087608;28;20206;-90
2021/11/10 05:15:15;;;;;;;13.00;7.30;;;1.30;95.60;;;;;;5073271;28;20223;-90
2021/11/10 05:17:42;;;;;;;11.00;8.17;;;1.20;96.10;;;;;;5100533;28;20197;-92
2021/11/10 05:20:10;;;;;;;9.57;7.77;;;1.10;96.20;;;;;;5096191;28;20208;-89
2021/11/10 05:22:40;;;;;;;11.27;7.67;;;1.20;96.40;;;;;;5092155;28;20220;-90
2021/11/10 05:25:09;;;;;;;12.00;7.97;;;1.30;96.10;;;;;;5091951;28;20200;-90
2021/11/10 05:30:18;;;;;;;11.37;8.00;;;1.40;95.70;;;;;;5094449;28;20256;-90
2021/11/10 05:32:45;;;;;;;9.00;7.50;;;1.50;95.60;;;;;;5066583;28;20214;-89
2021/11/10 05:35:13;;;;;;;11.33;8.13;;;1.50;95.30;;;;;;5090817;28;20587;-90
2021/11/10 05:37:43;;;;;;;12.67;8.03;;;1.50;95.10;;;;;;5074384;28;20210;-92
2021/11/10 05:40:26;;;;;;;11.53;7.80;;;1.50;95.20;;;;;;5092865;28;20207;-91
2021/11/10 05:42:53;;;;;;;10.90;8.20;;;1.50;95.10;;;;;;5087810;28;20239;-90
2021/11/10 05:45:20;;;;;;;9.13;7.17;;;1.50;95.40;;;;;;5091868;28;20651;-89
2021/11/10 05:47:48;;;;;;;13.13;8.33;;;1.50;95.40;;;;;;5090388;28;20220;-90
2021/11/10 05:50:15;;;;;;;12.97;7.83;;;1.40;95.50;;;;;;5088046;28;20203;-90
2021/11/10 05:52:45;;;;;;;10.17;7.60;;;1.40;95.90;;;;;;5092536;28;20214;-91
2021/11/10 05:55:15;;;;;;;10.00;7.50;;;1.30;96.40;;;;;;5091172;28;20278;-89
2021/11/10 05:57:42;;;;;;;10.93;8.53;;;1.40;96.60;;;;;;5091136;28;20284;-89
2021/11/10 06:00:14;;;;;;;10.50;7.77;;;1.50;96.50;;;;;;5092544;28;20210;-89
2021/11/10 06:02:43;;;;;;;10.03;7.67;;;1.60;96.40;;;;;;5091483;28;20209;-90
2021/11/10 06:05:14;;;;;;;14.17;8.43;;;1.60;96.10;;;;;;5074694;28;20297;-88
2021/11/10 06:07:41;;;;;;;14.53;8.30;;;1.70;95.80;;;;;;5063031;28;20215;-89
2021/11/10 06:10:10;;;;;;;10.30;8.00;;;1.80;95.60;;;;;;5070689;28;20199;-88
2021/11/10 06:15:19;;;;;;;12.67;7.97;;;1.70;95.40;;;;;;5083393;28;20211;-89
2021/11/10 06:17:46;;;;;;;11.33;7.70;;;1.80;95.30;;;;;;5088835;28;20207;-89
2021/11/10 06:20:15;;;;;;;11.73;8.57;;;1.70;95.20;;;;;;5091296;28;20218;-89
2021/11/10 06:22:43;;;;;;;14.93;8.23;;;1.70;95.30;;;;;;5068775;28;20651;-88
2021/11/10 06:25:12;;;;;;;12.17;9.10;;;1.70;95.30;;;;;;5088367;28;20217;-89
2021/11/10 06:27:40;;;;;;;13.40;9.07;;;1.60;95.30;;;;;;5090999;28;20205;-87
2021/11/10 06:30:09;;;;;;;10.40;8.40;;;1.50;95.80;;;;;;5087082;28;20243;-87
2021/11/10 06:32:36;;;;;;;11.87;8.50;;;1.40;96.20;;;;;;5084636;28;20660;-89
2021/11/10 06:35:04;;;;;;;14.07;8.37;;;1.40;96.30;;;;;;5088115;28;20727;-89
2021/11/10 06:37:31;;;;;;;11.03;8.57;;;1.50;96.50;;;;;;5088674;28;20209;-88
2021/11/10 06:39:58;;;;;;;10.83;8.13;;;1.50;96.30;;;;;;5091260;28;20212;-89
2021/11/10 06:42:27;;;;;;;10.40;8.07;;;1.60;96.20;;;;;;5091142;28;20211;-88
2021/11/10 06:44:56;;;;;;;12.67;7.87;;;1.70;96.10;;;;;;5087439;28;20728;-89
2021/11/10 06:47:26;;;;;;;11.20;7.77;;;1.70;96.10;;;;;;5088013;28;20224;-88
2021/11/10 06:49:53;;;;;;;11.00;7.30;;;1.80;96.20;;;;;;5072306;28;20258;-89
2021/11/10 06:52:21;;;;;;;10.80;8.00;;;2.00;95.70;;;;;;5090532;28;20565;-89
2021/11/10 06:54:50;;;;;;;10.60;7.47;;;1.90;95.50;;;;;;5086116;28;20232;-89
2021/11/10 06:57:17;;;;;;;12.13;7.30;;;2.10;95.50;;;;;;5070397;28;20215;-88
2021/11/10 06:59:46;;;;;;;11.00;7.37;;;2.20;95.10;;;;;;5078980;28;20232;-90
2021/11/10 07:02:17;;;;;;;11.60;7.60;;;2.30;95.10;;;;;;5090574;28;20558;-91
2021/11/10 07:04:45;;;;;;;11.13;7.67;;;2.30;94.80;;;;;;5039011;28;20235;-91
2021/11/10 07:07:13;;;;;;;11.97;7.43;;;2.40;94.80;;;;;;5079170;28;20196;-90
2021/11/10 07:15:27;;;;;;;12.10;7.77;;;2.70;94.60;;;;;;5074513;28;20761;-90
2021/11/10 07:17:55;;;;;;;14.53;7.80;;;2.80;94.60;;;;;;5070078;28;20220;-90
2021/11/10 07:23:10;;;;;;;16.83;7.60;;;2.90;94.60;;;;;;5076301;28;20325;-92
2021/11/10 07:25:47;;;;;;;16.23;9.00;;;3.10;94.70;;;;;;5055039;28;20205;-91
2021/11/10 07:28:33;;;;;;;18.23;8.93;;;3.30;94.40;;;;;;5070830;28;20208;-91
2021/11/10 07:31:02;;;;;;;15.90;8.90;;;3.50;93.60;;;;;;5075873;28;20215;-91
2021/11/10 07:33:33;;;;;;;17.23;9.23;;;3.60;93.20;;;;;;5075005;28;20227;-90
2021/11/10 07:36:01;;;;;;;22.37;9.53;;;3.70;93.20;;;;;;5063078;28;20219;-91
2021/11/10 07:38:28;;;;;;;15.73;10.10;;;3.70;92.90;;;;;;5078486;28;20222;-89
2021/11/10 07:40:56;;;;;;;16.10;9.53;;;3.90;92.80;;;;;;5057090;28;20573;-89
2021/11/10 07:43:24;;;;;;;21.67;10.33;;;3.90;92.40;;;;;;5087455;28;20241;-90
2021/11/10 07:45:54;;;;;;;17.07;10.17;;;3.90;92.50;;;;;;5091945;28;20205;-92
2021/11/10 07:48:23;;;;;;;16.43;9.90;;;4.00;92.60;;;;;;5084612;28;20670;-90
2021/11/10 07:50:51;;;;;;;18.67;10.10;;;4.10;92.40;;;;;;5094392;28;20231;-90
2021/11/10 07:53:18;;;;;;;19.23;9.33;;;4.10;92.40;;;;;;5088384;28;20223;-90
2021/11/10 07:55:45;;;;;;;16.97;9.83;;;4.00;93.00;;;;;;5089096;28;20276;-90
2021/11/10 07:58:19;;;;;;;15.43;8.50;;;4.20;92.90;;;;;;5087496;28;20236;-89
2021/11/10 08:00:50;;;;;;;17.03;9.07;;;4.20;92.60;;;;;;5063832;28;20193;-88
2021/11/10 08:03:17;;;;;;;14.23;8.37;;;4.30;92.30;;;;;;5087659;28;20296;-89
2021/11/10 08:05:46;;;;;;;11.70;7.87;;;4.40;92.30;;;;;;5053623;28;20760;-90
2021/11/10 08:08:13;;;;;;;10.87;8.00;;;4.50;92.30;;;;;;5073597;28;20228;-88
2021/11/10 08:10:43;;;;;;;18.17;9.30;;;4.70;92.20;;;;;;5072728;28;20212;-88
2021/11/10 08:13:14;;;;;;;17.60;11.03;;;4.80;92.10;;;;;;5064890;28;20221;-91
2021/11/10 08:15:47;;;;;;;20.70;10.17;;;4.90;91.80;;;;;;5082566;28;20192;-89
2021/11/10 08:18:15;;;;;;;13.00;7.97;;;4.90;91.40;;;;;;5082158;28;20227;-89
2021/11/10 08:20:43;;;;;;;15.07;7.93;;;4.80;90.90;;;;;;5075482;28;20195;-89
2021/11/10 08:23:32;;;;;;;13.33;7.53;;;4.80;90.60;;;;;;5062722;28;20225;-91
2021/11/10 08:26:00;;;;;;;15.77;8.03;;;4.80;91.00;;;;;;5068883;28;20202;-90
2021/11/10 08:28:30;;;;;;;10.23;6.80;;;5.10;91.10;;;;;;5075896;28;20967;-93
2021/11/10 08:30:58;;;;;;;10.03;6.77;;;5.10;90.20;;;;;;5097748;28;20557;-91
2021/11/10 08:33:29;;;;;;;9.90;6.47;;;5.30;89.20;;;;;;5095534;28;20224;-91
2021/11/10 08:35:56;;;;;;;13.07;7.10;;;5.30;89.10;;;;;;5075060;28;20216;-91
2021/11/10 08:38:25;;;;;;;10.07;6.23;;;5.60;88.60;;;;;;5091934;28;20225;-92
2021/11/10 08:43:35;;;;;;;9.37;6.33;;;6.00;86.90;;;;;;5082294;28;20233;-90
2021/11/10 08:48:39;;;;;;;8.68;6.03;;;6.80;80.80;;;;;;5086718;22;20238;-89
2021/11/10 08:51:06;;;;;;;9.18;6.20;;;7.10;79.90;;;;;;5041949;28;20193;-90
2021/11/10 08:53:34;;;;;;;9.00;6.05;;;7.30;78.60;;;;;;5027627;28;20231;-88
2021/11/10 08:56:41;;;;;;;11.38;6.57;;;7.70;74.40;;;;;;5026785;28;20207;-90
2021/11/10 08:59:59;;;;;;;10.07;5.97;;;8.10;73.00;;;;;;5026664;28;20226;-91
2021/11/10 09:08:04;;;;;;;11.43;6.18;;;8.80;65.80;;;;;;5024644;28;20702;-89
2021/11/10 09:10:33;;;;;;;10.38;5.38;;;9.10;63.30;;;;;;5035175;28;20267;-90
2021/11/10 09:15:45;;;;;;;12.80;5.82;;;9.80;54.60;;;;;;5026144;28;20207;-92
2021/11/10 09:18:12;;;;;;;7.32;5.95;;;9.30;55.70;;;;;;5025111;28;20252;-89
2021/11/10 09:21:25;;;;;;;8.93;5.75;;;9.10;57.40;;;;;;5040775;28;20198;-91
2021/11/10 09:24:03;;;;;;;8.40;5.40;;;9.20;58.30;;;;;;5042781;28;20602;-92
2021/11/10 09:26:31;;;;;;;5.55;4.55;;;8.90;59.70;;;;;;5031267;28;20191;-91
2021/11/10 09:29:00;;;;;;;9.57;4.55;;;9.10;59.10;;;;;;5035225;28;20246;-91
2021/11/10 09:31:27;;;;;;;10.00;5.00;;;9.20;59.00;;;;;;5005564;28;20194;-88
2021/11/10 09:34:00;;;;;;;9.43;4.80;;;9.50;57.60;;;;;;5031803;28;20235;-89
2021/11/10 09:36:32;;;;;;;11.98;5.07;;;9.50;57.50;;;;;;5036723;28;20195;-88
2021/11/10 09:39:12;;;;;;;5.82;4.40;;;9.70;56.40;;;;;;5042548;28;20256;-89
2021/11/10 09:41:42;;;;;;;6.25;4.18;;;10.30;52.80;;;;;;5047762;28;20202;-90
2021/11/10 09:53:23;;;;;;;8.32;4.97;;;10.50;47.20;;;;;;5007430;28;20220;-92
2021/11/10 09:56:11;;;;;;;8.48;5.20;;;10.40;47.60;;;;;;4971349;28;20220;-91
2021/11/10 09:58:39;;;;;;;7.85;5.22;;;10.20;48.90;;;;;;4999807;28;20203;-90
2021/11/10 10:04:14;;;;;;;7.43;5.45;;;10.10;52.10;;;;;;5032509;28;20223;-91
2021/11/10 10:06:51;;;;;;;7.15;5.10;;;10.10;53.60;;;;;;5025515;28;20607;-90
2021/11/10 10:09:18;;;;;;;8.07;5.05;;;10.20;51.20;;;;;;5032941;28;20206;-90
2021/11/10 10:11:46;;;;;;;7.32;5.20;;;10.30;52.40;;;;;;5011940;28;20203;-90
2021/11/10 10:14:13;;;;;;;8.07;5.40;;;10.20;50.90;;;;;;5040536;28;20233;-92
2021/11/10 10:16:43;;;;;;;9.00;5.88;;;9.80;52.30;;;;;;5014746;28;20209;-90
2021/11/10 10:19:15;;;;;;;8.88;5.55;;;9.50;55.20;;;;;;5047317;28;20262;-89
2021/11/10 10:22:00;;;;;;;8.75;6.05;;;9.30;57.10;;;;;;5034109;28;20222;-91
2021/11/10 10:30:53;;;;;;;13.88;6.45;;;9.00;62.70;;;;;;5038463;28;20250;-89
2021/11/10 10:33:32;;;;;;;21.58;11.00;;;8.90;60.90;;;;;;5041382;28;20202;-89
2021/11/10 10:42:00;;;;;;;9.50;6.50;;;9.40;62.10;;;;;;5017503;28;20290;-89
2021/11/10 11:36:23;;;;;;;7.30;5.13;;;10.10;59.90;;;;;;6188101;22;20277;-87
2021/11/10 11:38:50;;;;;;;7.15;4.43;;;9.70;62.10;;;;;;5040866;28;20231;-87
2021/11/10 11:41:18;;;;;;;8.18;4.68;;;9.80;61.60;;;;;;5042613;28;20198;-87
2021/11/10 11:43:45;;;;;;;8.18;4.80;;;9.80;62.50;;;;;;5041829;28;20681;-87
2021/11/10 11:46:12;;;;;;;5.93;4.53;;;9.60;64.10;;;;;;5024478;28;20226;-89
2021/11/10 11:48:54;;;;;;;5.70;4.38;;;9.40;66.00;;;;;;5029772;28;20297;-88
2021/11/10 11:54:49;;;;;;;7.07;4.50;;;9.80;66.10;;;;;;5045163;28;20226;-88
2021/11/10 11:57:36;;;;;;;9.23;5.00;;;9.80;63.20;;;;;;5040668;28;20179;-88
2021/11/10 12:00:07;;;;;;;6.55;4.25;;;9.60;65.40;;;;;;5037291;28;20199;-90
2021/11/10 12:02:38;;;;;;;6.57;4.25;;;9.50;66.50;;;;;;5044369;28;20581;-88
2021/11/10 12:05:18;;;;;;;6.72;4.20;;;9.50;65.60;;;;;;5040968;28;20228;-88
2021/11/10 12:14:33;;;;;;;5.65;4.20;;;9.40;65.60;;;;;;5030639;28;20205;-88
2021/11/10 12:17:03;;;;;;;5.25;3.83;;;9.40;67.30;;;;;;5054344;28;20201;-87
2021/11/10 12:19:33;;;;;;;7.72;4.22;;;9.50;66.70;;;;;;5047457;28;20240;-87
2021/11/10 12:22:09;;;;;;;5.30;3.80;;;9.60;64.90;;;;;;5065265;28;20217;-89
2021/11/10 12:25:08;;;;;;;4.85;3.70;;;9.70;64.20;;;;;;5043316;28;20222;-91
2021/11/10 12:27:37;;;;;;;5.80;4.03;;;9.50;65.00;;;;;;5044964;28;20191;-91
2021/11/10 12:41:09;;;;;;;6.45;3.92;;;9.80;62.60;;;;;;5049141;28;20195;-91
2021/11/10 12:44:23;;;;;;;4.85;3.85;;;9.90;61.50;;;;;;5039366;28;20220;-92
2021/11/10 12:52:49;;;;;;;6.70;4.45;;;9.50;63.70;;;;;;5064597;28;20169;-91
2021/11/10 12:55:56;;;;;;;5.88;4.05;;;9.60;64.00;;;;;;5069767;28;20249;-89
2021/11/10 13:07:51;;;;;;;6.40;3.47;;;9.60;63.70;;;;;;5030763;28;20188;-88
2021/11/10 13:21:07;;;;;;;8.63;4.70;;;9.70;63.30;;;;;;5045151;28;20225;-88
2021/11/10 13:23:35;;;;;;;8.10;4.40;;;9.60;63.40;;;;;;5038819;28;20269;-88
2021/11/10 13:29:41;;;;;;;7.47;4.45;;;9.40;65.80;;;;;;5028924;28;20250;-88
2021/11/10 13:35:38;;;;;;;6.22;4.35;;;9.60;67.20;;;;;;5027683;28;20166;-89
2021/11/10 13:42:27;;;;;;;6.25;4.13;;;9.60;64.40;;;;;;5051081;28;20201;-90
2021/11/10 14:34:59;;;;;;;11.45;8.63;;;8.70;84.80;;;;;;5002844;28;20234;-91
2021/11/10 14:37:26;;;;;;;12.07;8.15;;;8.60;86.10;;;;;;5013095;28;20225;-93
2021/11/10 14:39:56;;;;;;;12.88;9.13;;;8.60;86.90;;;;;;5000496;28;20198;-91
2021/11/10 14:45:25;;;;;;;12.57;8.90;;;8.60;87.20;;;;;;4979137;28;20227;-93
2021/11/10 14:47:59;;;;;;;17.73;8.55;;;8.50;87.40;;;;;;5011264;28;20344;-93
2021/11/10 14:50:28;;;;;;;15.27;8.07;;;8.50;88.10;;;;;;5041729;28;20225;-92
2021/11/10 14:53:17;;;;;;;12.77;9.07;;;8.50;86.40;;;;;;5057505;28;20205;-92
2021/11/10 14:56:16;;;;;;;13.65;8.80;;;8.40;87.40;;;;;;5058198;28;20204;-92
2021/11/10 15:01:40;;;;;;;13.73;8.90;;;8.40;87.90;;;;;;5055024;28;20268;-91
2021/11/10 15:07:06;;;;;;;16.63;9.52;;;8.40;88.30;;;;;;5045938;28;20692;-89
2021/11/10 15:09:34;;;;;;;13.80;9.43;;;8.30;89.30;;;;;;5032907;28;20300;-91
2021/11/10 15:12:01;;;;;;;14.63;8.75;;;8.20;90.60;;;;;;5033968;28;20231;-92
2021/11/10 15:14:34;;;;;;;14.55;8.70;;;8.20;90.10;;;;;;5047274;28;20260;-92
2021/11/10 15:17:03;;;;;;;12.45;9.77;;;8.30;89.10;;;;;;5033484;28;20317;-91
2021/11/10 15:19:32;;;;;;;14.90;10.10;;;8.20;89.10;;;;;;5028759;28;20199;-91
2021/11/10 15:21:59;;;;;;;17.00;9.02;;;8.20;90.10;;;;;;5032290;28;20308;-90
2021/11/10 15:24:34;;;;;;;12.20;8.77;;;8.10;90.30;;;;;;5021794;28;20220;-91
2021/11/10 15:27:03;;;;;;;15.07;9.38;;;8.00;90.30;;;;;;5024744;28;20364;-90
2021/11/10 15:29:30;;;;;;;11.63;9.35;;;8.00;90.30;;;;;;5035049;28;20248;-90
2021/11/10 15:32:06;;;;;;;16.20;9.88;;;7.90;90.20;;;;;;5029417;28;20246;-90
2021/11/10 15:34:35;;;;;;;14.15;9.63;;;7.90;90.20;;;;;;5016969;28;20237;-93
2021/11/10 15:37:03;;;;;;;11.98;9.10;;;7.90;90.20;;;;;;5033846;28;20280;-92
2021/11/10 15:42:12;;;;;;;16.52;8.93;;;7.90;90.20;;;;;;5018950;28;20264;-92
2021/11/10 15:44:48;;;;;;;12.18;9.57;;;7.90;90.20;;;;;;5044726;28;20209;-92
2021/11/10 15:47:17;;;;;;;12.75;9.77;;;7.90;90.20;;;;;;5042070;28;20741;-92
2021/11/10 15:49:46;;;;;;;13.15;9.63;;;8.00;90.30;;;;;;5049524;28;20256;-92
2021/11/10 15:58:16;;;;;;;17.30;10.57;;;7.80;90.20;;;;;;5055731;28;20256;-91
2021/11/10 16:00:43;;;;;;;15.75;9.95;;;7.80;90.20;;;;;;5060114;28;20305;-90
2021/11/10 16:03:14;;;;;;;13.63;9.75;;;7.80;90.60;;;;;;5064592;28;20194;-91
2021/11/10 16:05:44;;;;;;;15.80;9.35;;;7.80;90.70;;;;;;5060542;28;20621;-90
2021/11/10 16:08:14;;;;;;;12.68;9.40;;;7.80;91.00;;;;;;5063038;28;20256;-89
2021/11/10 16:10:42;;;;;;;16.17;10.00;;;7.80;90.90;;;;;;5062860;28;20230;-92
2021/11/10 16:13:29;;;;;;;14.38;9.20;;;7.80;91.00;;;;;;5039610;28;20604;-88
2021/11/10 16:16:02;;;;;;;18.45;9.85;;;7.70;91.20;;;;;;5063727;28;20227;-88
2021/11/10 16:18:38;;;;;;;15.32;10.57;;;7.60;91.30;;;;;;5061675;28;20206;-88
2021/11/10 16:21:12;;;;;;;16.38;11.10;;;7.50;91.90;;;;;;5059210;28;20232;-89
2021/11/10 16:23:42;;;;;;;16.20;11.57;;;7.40;92.40;;;;;;5063066;28;20202;-88
2021/11/10 16:26:10;;;;;;;14.43;10.30;;;7.40;92.60;;;;;;5059953;28;20226;-89
2021/11/10 16:28:42;;;;;;;14.32;11.48;;;7.40;92.70;;;;;;5059431;28;20213;-87
2021/11/10 16:31:24;;;;;;;17.63;10.55;;;7.40;92.70;;;;;;5059749;28;20230;-87
2021/11/10 16:33:51;;;;;;;19.13;11.25;;;7.40;92.70;;;;;;5060738;28;20186;-86
2021/11/10 16:36:22;;;;;;;12.98;10.70;;;7.40;92.90;;;;;;5061620;28;20226;-90
2021/11/10 16:38:56;;;;;;;14.93;10.68;;;7.40;93.10;;;;;;5064194;28;20194;-89
2021/11/10 16:41:24;;;;;;;15.48;10.00;;;7.40;92.90;;;;;;5066398;28;20234;-88
2021/11/10 16:43:51;;;;;;;14.65;10.82;;;7.50;92.90;;;;;;5063452;28;20390;-89
2021/11/10 16:46:18;;;;;;;12.95;10.20;;;7.60;92.60;;;;;;5056713;28;20243;-87
2021/11/10 16:48:45;;;;;;;19.63;11.27;;;7.60;92.50;;;;;;5063059;28;20627;-87
2021/11/10 16:51:14;;;;;;;15.13;11.13;;;7.60;92.30;;;;;;5058146;28;20234;-86
2021/11/10 16:53:47;;;;;;;16.27;11.65;;;7.60;92.40;;;;;;5061668;28;20208;-89
2021/11/10 16:56:14;;;;;;;18.30;10.55;;;7.60;92.50;;;;;;5051379;28;20703;-87
2021/11/10 16:58:43;;;;;;;17.63;11.30;;;7.60;92.60;;;;;;5059776;28;20225;-87
2021/11/10 17:01:12;;;;;;;15.63;10.80;;;7.60;92.60;;;;;;5058126;28;20227;-90
2021/11/10 17:03:39;;;;;;;16.35;11.02;;;7.70;92.40;;;;;;5074115;28;20206;-89
2021/11/10 17:06:08;;;;;;;18.65;11.18;;;7.70;92.50;;;;;;5063068;28;20309;-89
2021/11/10 17:08:35;;;;;;;18.52;11.63;;;7.60;92.40;;;;;;5062517;28;20198;-89
2021/11/10 17:31:38;;;;;;;18.25;12.38;;;7.40;93.40;;;;;;5055978;28;20670;-89
2021/11/10 17:34:10;;;;;;;17.40;11.98;;;7.40;93.50;;;;;;5059069;28;20672;-88
2021/11/10 17:36:37;;;;;;;21.40;12.30;;;7.40;93.50;;;;;;5054462;28;20286;-90
2021/11/10 17:39:04;;;;;;;16.35;12.02;;;7.40;93.60;;;;;;5060170;28;20657;-90
2021/11/10 17:41:39;;;;;;;19.52;12.27;;;7.40;93.50;;;;;;5058969;28;20222;-90
2021/11/10 17:44:06;;;;;;;18.30;12.35;;;7.50;93.40;;;;;;5058536;28;20193;-90
2021/11/10 17:46:33;;;;;;;16.60;11.73;;;7.50;93.30;;;;;;5058285;28;20233;-91